Startpagina
METAR-TAF:

METAR-TAF

Vliegvelden :

Luchthaven Tolmatsjovo

Novosibirsk, Rusland

breedte: 55-01N, lengte: 082-38E, hoogte: 111 m

Actueel weer

Dit bericht is 36 minuten geleden gemaakt, om 21:30 UTC
Wind 4 kt uit het westen
Temperatuur 17°C
Vochtigheid 82%
Druk 1010 hPa
Zicht 10 km of meer
geen wolken onder 1500 m en geen cumulonimbus

METAR: UNNT 182130Z 26002MPS CAVOK 17/14 Q1010 R25/090070 R16/090070 NOSIG RMK QFE747/0996

Tijdstip: 05:06 (22:06 UTC)

Verwachting

Dit bericht is 2 uur en het 6 minuten geleden gemaakt, om 20:00 UTC
Verwachting geldig van 18 om 21 UTC tot 19 om 21 UTC
Wind 2 kt uit variabele richting
Zicht 10 km of meer
geen wolken onder 1500 m en geen cumulonimbus
Van 19 om 0300 UTC
Wind 6 kt uit het noorden met uitschieters tot 16 kt
Zicht 10 km of meer
Gebroken wolken op 4000 ft, Cumulonimbus.
Tijdelijke
van 19 om 03 UTC tot 19 om 18 UTC
onweer, lichte regen

TAF: UNNT 182000Z 1821/1921 VRB01MPS CAVOK FM190300 36003G08MPS 9999 BKN040CB TEMPO 1903/1918 -TSRA

Waarnemingen en weersverwachtingen van meer dan 4000 vliegvelden (METAR en TAF).

De beschikbare stations zijn de gele en rode punten op de kaart.

Ga met uw muis naar het station om de naam te zien.

Klik dan om waarnemingen en weersverwachtingen te zien.

kaart wijzigen: klik op de groene knoppen met een zwart kruis om in te zoomen, op de groene knop met een streepje om uit te zoomen of op de groene pijlen voor aangrenzende kaarten.


METAR-TAF: